Time;durP1;ratioP1;P1;durP2;ratioP2;P2;SDS_P1;SDS_P2;PMS_P1;PMS_P2;Temp;Humidity;BMP_temperature;BMP_pressure;BME280_temperature;BME280_humidity;BME280_pressure;Samples;Min_cycle;Max_cycle;Signal;HPM_P1;HPM_P2
2022/08/03 00:00:40;;;;;;;3.75;2.85;;;;;;;24.22;100.00;99741.25;5007032;28;20033;-80
2022/08/03 00:03:06;;;;;;;3.42;2.80;;;;;;;23.94;100.00;99739.91;4999888;28;20594;-81
2022/08/03 00:05:33;;;;;;;6.22;3.70;;;;;;;23.81;100.00;99740.03;5006377;28;20038;-80
2022/08/03 00:08:00;;;;;;;6.80;3.33;;;;;;;23.79;100.00;99736.78;5000731;28;20030;-80
2022/08/03 00:10:25;;;;;;;3.10;2.90;;;;;;;23.84;100.00;99742.31;4998253;28;20116;-80
2022/08/03 00:12:52;;;;;;;4.00;2.85;;;;;;;23.94;100.00;99739.06;5005962;28;20064;-81
2022/08/03 00:15:18;;;;;;;4.35;2.90;;;;;;;24.05;100.00;99747.22;5011545;28;20038;-80
2022/08/03 00:17:44;;;;;;;3.88;3.05;;;;;;;24.07;100.00;99739.75;5010885;28;20045;-80
2022/08/03 00:20:10;;;;;;;3.90;3.05;;;;;;;24.13;100.00;99748.00;5010906;28;20061;-79
2022/08/03 00:22:36;;;;;;;3.03;2.83;;;;;;;24.21;100.00;99750.41;4995428;28;20368;-80
2022/08/03 00:25:02;;;;;;;4.72;3.55;;;;;;;24.20;100.00;99744.19;4994173;28;20038;-80
2022/08/03 00:27:28;;;;;;;3.55;3.17;;;;;;;24.11;100.00;99750.06;4996796;28;20092;-80
2022/08/03 00:29:53;;;;;;;3.35;2.80;;;;;;;23.93;100.00;99743.63;4994698;28;20022;-81
2022/08/03 00:32:19;;;;;;;3.60;2.90;;;;;;;23.76;100.00;99752.53;4993836;28;20038;-78
2022/08/03 00:34:45;;;;;;;3.97;3.55;;;;;;;23.69;100.00;99752.59;4993504;28;20065;-79
2022/08/03 00:37:10;;;;;;;3.17;2.78;;;;;;;23.73;100.00;99748.44;4991472;28;20049;-79
2022/08/03 00:39:36;;;;;;;3.33;3.13;;;;;;;23.80;100.00;99754.56;4994437;28;20030;-79
2022/08/03 00:42:05;;;;;;;3.42;3.13;;;;;;;23.86;100.00;99737.50;4993344;28;20098;-79
2022/08/03 00:44:38;;;;;;;6.67;3.20;;;;;;;23.90;100.00;99744.09;4990186;28;20035;-79
2022/08/03 00:47:03;;;;;;;4.63;3.13;;;;;;;23.95;100.00;99746.94;4991268;28;20034;-79
2022/08/03 00:49:29;;;;;;;5.43;2.85;;;;;;;23.88;100.00;99745.38;4994615;28;20031;-78
2022/08/03 00:51:55;;;;;;;4.70;3.28;;;;;;;23.78;100.00;99751.28;4996780;28;20038;-79
2022/08/03 00:54:21;;;;;;;3.67;3.00;;;;;;;23.69;100.00;99744.53;4993904;28;20026;-79
2022/08/03 00:56:48;;;;;;;3.85;3.55;;;;;;;23.44;100.00;99741.84;4996633;28;20046;-79
2022/08/03 00:59:15;;;;;;;3.65;3.33;;;;;;;23.35;100.00;99747.72;4991067;28;20034;-77
2022/08/03 01:01:41;;;;;;;3.42;2.90;;;;;;;23.32;100.00;99742.78;4994081;28;20367;-77
2022/08/03 01:04:06;;;;;;;3.35;3.03;;;;;;;23.39;100.00;99740.84;4991874;28;20031;-78
2022/08/03 01:06:41;;;;;;;3.30;3.10;;;;;;;23.45;100.00;99735.41;4992408;28;20026;-77
2022/08/03 01:09:29;;;;;;;5.22;3.20;;;;;;;23.34;100.00;99738.00;4989649;28;20372;-77
2022/08/03 01:12:36;;;;;;;5.20;3.22;;;;;;;23.02;100.00;99738.06;4986319;28;20035;-79
2022/08/03 01:15:18;;;;;;;3.17;2.90;;;;;;;22.94;100.00;99738.31;4947948;28;20046;-77
2022/08/03 01:18:10;;;;;;;4.90;3.67;;;;;;;22.90;100.00;99736.28;4979038;28;20042;-78
2022/08/03 01:20:39;;;;;;;4.90;3.35;;;;;;;22.93;100.00;99731.28;4983069;28;20051;-78
2022/08/03 01:23:26;;;;;;;4.18;3.75;;;;;;;23.03;100.00;99737.00;4983702;28;20026;-78
2022/08/03 01:26:17;;;;;;;5.35;2.80;;;;;;;23.01;100.00;99733.72;4987164;28;20080;-79
2022/08/03 01:29:01;;;;;;;3.92;3.40;;;;;;;22.93;100.00;99725.91;4991380;28;20037;-79
2022/08/03 01:31:42;;;;;;;4.10;3.30;;;;;;;22.92;100.00;99735.00;4990765;28;20390;-79
2022/08/03 01:34:12;;;;;;;4.30;3.35;;;;;;;22.95;100.00;99734.59;4985652;28;20035;-80
2022/08/03 01:36:45;;;;;;;5.40;3.30;;;;;;;22.95;100.00;99729.22;4975714;28;20034;-77
2022/08/03 01:39:11;;;;;;;5.18;3.47;;;;;;;23.00;100.00;99726.69;4991642;28;20031;-79
2022/08/03 01:42:01;;;;;;;4.88;3.38;;;;;;;23.11;100.00;99728.66;4993031;28;20382;-79
2022/08/03 01:44:31;;;;;;;3.45;3.15;;;;;;;23.20;100.00;99726.53;4987839;28;20059;-80
2022/08/03 01:47:01;;;;;;;;;;;;;;;23.27;100.00;99728.09;4994120;28;20078;-80
2022/08/03 01:49:30;;;;;;;3.53;3.20;;;;;;;23.35;100.00;99726.19;4974202;28;19989;-81
2022/08/03 01:51:58;;;;;;;3.85;3.35;;;;;;;23.22;100.00;99725.25;4991707;28;20382;-81
2022/08/03 01:54:26;;;;;;;3.10;2.90;;;;;;;23.21;100.00;99728.16;4997104;28;20043;-81
2022/08/03 01:56:55;;;;;;;8.93;3.33;;;;;;;23.24;100.00;99733.13;4990278;28;20045;-79
2022/08/03 01:59:24;;;;;;;3.20;3.00;;;;;;;23.22;100.00;99727.94;4989742;28;20761;-82
2022/08/03 02:01:50;;;;;;;2.97;2.78;;;;;;;23.23;100.00;99731.47;4966984;28;20076;-81
2022/08/03 02:04:20;;;;;;;3.40;3.17;;;;;;;23.24;100.00;99733.94;4988097;28;20066;-82
2022/08/03 02:06:47;;;;;;;5.97;3.40;;;;;;;23.23;100.00;99734.97;4991193;28;20039;-81
2022/08/03 02:09:16;;;;;;;5.47;3.05;;;;;;;23.18;100.00;99729.44;4973952;28;20117;-81
2022/08/03 02:11:42;;;;;;;3.70;3.25;;;;;;;23.20;100.00;99727.38;4987528;28;20381;-80
2022/08/03 02:14:09;;;;;;;3.70;3.22;;;;;;;23.18;100.00;99734.81;4983757;28;20438;-79
2022/08/03 02:16:36;;;;;;;4.50;3.20;;;;;;;23.11;100.00;99734.06;4987209;28;20026;-81
2022/08/03 02:19:05;;;;;;;3.38;3.10;;;;;;;22.98;100.00;99738.69;4985662;28;20019;-80
2022/08/03 02:21:36;;;;;;;3.78;3.30;;;;;;;22.87;100.00;99737.53;4980022;28;20405;-79
2022/08/03 02:24:03;;;;;;;4.28;3.40;;;;;;;22.78;100.00;99736.16;4982976;28;20497;-80
2022/08/03 02:26:30;;;;;;;5.28;3.50;;;;;;;22.76;100.00;99740.94;4990162;28;20156;-81
2022/08/03 02:29:02;;;;;;;4.00;3.40;;;;;;;22.73;100.00;99730.63;4984707;28;20378;-81
2022/08/03 02:31:32;;;;;;;3.78;3.47;;;;;;;22.79;100.00;99724.38;4985608;28;20081;-82
2022/08/03 02:34:05;;;;;;;3.78;3.40;;;;;;;22.83;100.00;99736.34;4983647;28;20041;-82
2022/08/03 02:36:36;;;;;;;4.15;3.78;;;;;;;22.88;100.00;99728.44;4983465;28;20035;-80
2022/08/03 02:39:03;;;;;;;6.18;3.60;;;;;;;22.91;100.00;99735.25;4992828;28;20089;-80
2022/08/03 02:41:37;;;;;;;4.63;3.25;;;;;;;22.92;100.00;99731.50;4991627;28;20097;-80
2022/08/03 02:44:08;;;;;;;4.28;3.88;;;;;;;22.93;100.00;99725.91;4992552;28;20031;-79
2022/08/03 02:46:37;;;;;;;4.47;4.07;;;;;;;22.96;100.00;99725.50;4987818;28;20105;-79
2022/08/03 02:49:03;;;;;;;4.50;4.10;;;;;;;22.97;100.00;99726.31;4990318;28;20054;-79
2022/08/03 02:51:34;;;;;;;4.60;4.07;;;;;;;22.97;100.00;99727.16;4986667;28;20030;-78
2022/08/03 02:54:03;;;;;;;4.78;4.22;;;;;;;22.92;100.00;99732.31;4986077;28;20025;-78
2022/08/03 02:56:29;;;;;;;5.32;4.47;;;;;;;22.90;100.00;99730.91;4986061;28;20530;-78
2022/08/03 02:58:58;;;;;;;6.60;4.38;;;;;;;22.89;100.00;99734.63;4985542;28;20027;-79
2022/08/03 03:01:25;;;;;;;5.45;3.83;;;;;;;22.85;100.00;99739.66;4986827;28;20035;-80
2022/08/03 03:03:53;;;;;;;5.15;4.00;;;;;;;22.79;100.00;99738.66;4990087;28;20046;-80
2022/08/03 03:06:20;;;;;;;4.32;3.90;;;;;;;22.74;100.00;99738.44;4988127;28;20030;-80
2022/08/03 03:08:47;;;;;;;8.77;4.70;;;;;;;22.68;100.00;99733.09;4970726;28;20072;-80
2022/08/03 03:11:13;;;;;;;4.85;3.80;;;;;;;22.63;100.00;99732.91;4986674;28;20349;-80
2022/08/03 03:13:42;;;;;;;4.78;4.18;;;;;;;22.64;100.00;99732.69;4983033;28;20097;-80
2022/08/03 03:16:08;;;;;;;5.57;4.20;;;;;;;22.64;100.00;99726.50;4989228;28;20034;-80
2022/08/03 03:18:36;;;;;;;4.70;3.88;;;;;;;22.66;100.00;99727.94;4986171;28;20050;-80
2022/08/03 03:21:03;;;;;;;4.82;4.47;;;;;;;22.65;100.00;99728.16;4993781;28;20056;-80
2022/08/03 03:23:30;;;;;;;5.15;4.32;;;;;;;22.72;100.00;99729.78;5005494;28;20036;-80
2022/08/03 03:25:57;;;;;;;4.35;3.80;;;;;;;22.64;100.00;99723.81;4999310;28;20034;-79
2022/08/03 03:28:24;;;;;;;5.07;4.00;;;;;;;22.60;100.00;99719.91;5001057;28;20263;-80
2022/08/03 03:30:51;;;;;;;6.43;4.18;;;;;;;22.62;100.00;99725.91;5004862;28;20042;-81
2022/08/03 03:33:16;;;;;;;4.60;4.20;;;;;;;22.61;100.00;99726.94;5002116;28;20022;-81
2022/08/03 03:35:45;;;;;;;4.30;3.72;;;;;;;22.63;100.00;99731.03;4997243;28;20041;-81
2022/08/03 03:38:11;;;;;;;7.05;3.83;;;;;;;22.65;100.00;99728.16;5002100;28;20030;-81
2022/08/03 03:40:37;;;;;;;3.95;3.65;;;;;;;22.65;100.00;99723.59;4999916;28;20034;-81
2022/08/03 03:43:07;;;;;;;3.80;3.60;;;;;;;22.65;100.00;99728.16;5002704;28;20029;-81
2022/08/03 03:45:34;;;;;;;5.05;3.67;;;;;;;22.61;100.00;99732.31;5004260;28;20113;-82
2022/08/03 03:48:04;;;;;;;3.63;3.33;;;;;;;22.58;100.00;99732.72;4996671;28;20045;-81
2022/08/03 03:50:35;;;;;;;4.70;4.30;;;;;;;22.59;100.00;99734.38;5005468;28;20031;-81
2022/08/03 03:53:01;;;;;;;3.72;3.40;;;;;;;22.60;100.00;99738.72;5001815;28;20816;-80
2022/08/03 03:55:27;;;;;;;4.00;3.70;;;;;;;22.59;100.00;99750.53;5008393;28;20050;-79
2022/08/03 03:57:53;;;;;;;6.82;3.63;;;;;;;22.56;100.00;99745.59;5001288;28;20022;-80
2022/08/03 04:00:19;;;;;;;4.68;3.92;;;;;;;22.49;100.00;99742.13;5004857;28;20061;-79
2022/08/03 04:02:45;;;;;;;4.75;4.28;;;;;;;22.43;100.00;99741.94;5003177;28;20030;-78
2022/08/03 04:11:08;;;;;;;4.85;4.45;;;;;;;22.10;100.00;99749.31;5002169;28;20034;-79
2022/08/03 04:13:39;;;;;;;5.55;4.72;;;;;;;22.08;100.00;99758.63;5010433;28;20053;-79
2022/08/03 04:16:09;;;;;;;4.63;4.28;;;;;;;22.09;100.00;99755.72;5014765;28;20040;-79
2022/08/03 04:18:38;;;;;;;7.28;4.57;;;;;;;22.13;100.00;99759.63;5005496;28;20034;-78
2022/08/03 04:21:10;;;;;;;5.05;4.72;;;;;;;22.15;100.00;99754.84;4995884;28;20129;-78
2022/08/03 04:23:41;;;;;;;6.38;4.30;;;;;;;22.19;100.00;99761.47;4964439;28;20505;-78
2022/08/03 04:26:11;;;;;;;7.28;5.00;;;;;;;22.20;100.00;99762.31;4983641;28;20473;-80
2022/08/03 04:28:40;;;;;;;5.50;4.95;;;;;;;22.15;100.00;99760.22;4984981;28;20046;-80
2022/08/03 04:31:06;;;;;;;8.80;5.53;;;;;;;22.12;100.00;99760.69;4986784;28;20103;-80
2022/08/03 04:33:34;;;;;;;6.10;5.20;;;;;;;22.08;100.00;99764.84;4967717;28;20105;-80
2022/08/03 04:36:03;;;;;;;6.55;4.60;;;;;;;22.06;100.00;99766.91;4982398;28;20046;-83
2022/08/03 04:38:31;;;;;;;11.23;4.70;;;;;;;22.04;100.00;99767.09;4982207;28;20089;-83
2022/08/03 04:40:59;;;;;;;5.15;4.65;;;;;;;22.08;100.00;99764.84;4982996;28;20030;-83
2022/08/03 04:43:28;;;;;;;8.52;5.32;;;;;;;22.12;100.00;99771.44;4979399;28;20114;-82
2022/08/03 04:45:55;;;;;;;5.47;5.05;;;;;;;22.11;100.00;99774.31;4966069;28;20046;-81
2022/08/03 04:48:21;;;;;;;6.20;4.95;;;;;;;22.07;100.00;99773.94;4985044;28;20027;-83
2022/08/03 04:50:47;;;;;;;6.45;5.75;;;;;;;21.87;100.00;99773.13;4987987;28;20485;-84
2022/08/03 04:53:13;;;;;;;7.38;5.22;;;;;;;21.89;100.00;99776.41;4966051;28;20023;-84
2022/08/03 04:55:38;;;;;;;6.00;5.40;;;;;;;21.90;100.00;99778.91;4984604;28;20078;-84
2022/08/03 04:58:06;;;;;;;6.30;5.70;;;;;;;21.98;100.00;99780.56;4988300;28;20080;-85
2022/08/03 05:00:31;;;;;;;5.35;4.85;;;;;;;22.05;100.00;99781.38;4983853;28;20030;-84
2022/08/03 05:02:57;;;;;;;5.38;4.97;;;;;;;22.12;100.00;99784.03;4985657;28;20058;-84
2022/08/03 05:05:23;;;;;;;6.15;5.60;;;;;;;22.18;100.00;99786.69;4984671;28;20072;-85
2022/08/03 05:07:49;;;;;;;7.65;5.18;;;;;;;22.19;100.00;99788.34;4984875;28;20034;-85
2022/08/03 05:10:15;;;;;;;8.75;5.38;;;;;;;22.26;100.00;99777.59;4984559;28;20031;-79
2022/08/03 05:12:41;;;;;;;5.72;4.70;;;;;;;22.32;100.00;99782.94;4986643;28;20121;-73
2022/08/03 05:15:07;;;;;;;5.43;4.93;;;;;;;22.41;100.00;99787.03;4984754;28;20125;-74
2022/08/03 05:17:33;;;;;;;6.88;5.25;;;;;;;22.48;100.00;99787.00;4986474;28;20398;-73
2022/08/03 05:20:00;;;;;;;6.88;5.47;;;;;;;22.54;100.00;99788.84;4984030;28;20034;-73
2022/08/03 05:22:26;;;;;;;6.38;5.78;;;;;;;22.56;100.00;99794.81;4979083;28;20033;-74
2022/08/03 05:24:51;;;;;;;6.65;6.05;;;;;;;22.59;100.00;99801.63;4984697;28;20117;-73
2022/08/03 05:27:20;;;;;;;6.57;5.95;;;;;;;22.63;100.00;99794.78;4983366;28;20027;-74
2022/08/03 05:29:48;;;;;;;6.50;5.93;;;;;;;22.68;100.00;99795.78;4983781;28;20054;-74
2022/08/03 05:32:14;;;;;;;6.30;5.90;;;;;;;22.72;100.00;99801.59;4985808;28;20093;-74
2022/08/03 05:34:40;;;;;;;6.25;5.75;;;;;;;22.74;100.00;99802.19;4987813;28;20022;-73
2022/08/03 05:37:06;;;;;;;6.03;5.47;;;;;;;22.76;100.00;99800.94;4987999;28;20026;-74
2022/08/03 05:39:32;;;;;;;6.13;5.50;;;;;;;22.81;100.00;99806.50;4983222;28;20035;-74
2022/08/03 05:41:58;;;;;;;6.53;5.95;;;;;;;22.84;100.00;99799.88;4981220;28;20471;-73
2022/08/03 05:44:24;;;;;;;7.18;6.35;;;;;;;22.84;100.00;99807.94;4984256;28;20045;-73
2022/08/03 05:46:50;;;;;;;7.20;6.03;;;;;;;22.71;100.00;99814.19;4982453;28;20796;-75
2022/08/03 05:49:18;;;;;;;6.57;6.07;;;;;;;22.72;100.00;99812.38;4986026;28;20042;-77
2022/08/03 05:51:43;;;;;;;6.70;6.20;;;;;;;22.77;100.00;99807.97;4977832;28;20041;-74
2022/08/03 05:54:09;;;;;;;6.88;6.20;;;;;;;22.85;100.00;99813.09;4983019;28;20023;-74
2022/08/03 05:56:35;;;;;;;8.90;6.68;;;;;;;22.91;100.00;99816.81;4981004;28;20034;-76
2022/08/03 05:59:00;;;;;;;9.77;7.60;;;;;;;22.94;100.00;99813.69;4982174;28;20070;-77
2022/08/03 06:01:26;;;;;;;9.68;7.28;;;;;;;22.93;100.00;99812.03;4983060;28;20026;-76
2022/08/03 06:03:51;;;;;;;7.82;7.13;;;;;;;22.86;100.00;99806.69;4987105;28;20031;-76
2022/08/03 06:06:17;;;;;;;7.47;6.88;;;;;;;22.94;100.00;99804.78;4982949;28;20056;-76
2022/08/03 06:08:44;;;;;;;6.88;6.38;;;;;;;23.03;100.00;99812.38;4985312;28;20041;-73
2022/08/03 06:11:10;;;;;;;8.43;6.43;;;;;;;23.17;100.00;99813.09;4981577;28;20479;-76
2022/08/03 06:13:37;;;;;;;10.95;7.00;;;;;;;23.31;100.00;99808.47;4983346;28;20041;-76
2022/08/03 06:16:03;;;;;;;8.73;6.75;;;;;;;23.41;100.00;99814.16;4982320;28;20069;-76
2022/08/03 06:18:29;;;;;;;7.07;6.50;;;;;;;23.50;100.00;99812.91;4980098;28;20058;-75
2022/08/03 06:20:55;;;;;;;6.45;5.93;;;;;;;23.60;100.00;99819.44;4976265;28;20043;-75
2022/08/03 06:23:21;;;;;;;7.03;6.32;;;;;;;23.69;100.00;99806.50;4983957;28;20034;-75
2022/08/03 06:25:47;;;;;;;7.97;5.57;;;;;;;23.74;100.00;99812.03;4979810;28;20054;-75
2022/08/03 06:28:13;;;;;;;6.80;6.18;;;;;;;23.82;100.00;99814.47;4984693;28;20027;-75
2022/08/03 06:30:39;;;;;;;8.27;5.88;;;;;;;23.88;100.00;99816.25;4989179;28;20093;-74
2022/08/03 06:33:05;;;;;;;6.75;5.80;;;;;;;23.94;100.00;99825.31;4990762;28;20034;-76
2022/08/03 06:35:32;;;;;;;7.47;6.45;;;;;;;24.00;100.00;99829.81;4991726;28;20174;-73
2022/08/03 06:37:58;;;;;;;6.63;6.07;;;;;;;24.03;100.00;99832.88;4999214;28;20455;-74
2022/08/03 06:40:30;;;;;;;10.13;6.10;;;;;;;24.06;100.00;99834.31;4999149;28;20041;-75
2022/08/03 06:43:00;;;;;;;6.65;6.15;;;;;;;24.12;100.00;99838.81;4999440;28;20109;-76
2022/08/03 06:45:27;;;;;;;5.95;5.40;;;;;;;24.22;100.00;99843.72;4993915;28;20037;-75
2022/08/03 06:48:13;;;;;;;6.10;5.50;;;;;;;24.28;100.00;99848.22;4983019;28;20053;-75
2022/08/03 06:50:40;;;;;;;7.43;6.45;;;;;;;24.37;100.00;99846.88;4988791;28;20038;-77
2022/08/03 06:53:08;;;;;;;5.25;4.75;;;;;;;24.40;100.00;99849.13;4982154;28;20552;-76
2022/08/03 06:55:33;;;;;;;6.32;5.60;;;;;;;24.48;100.00;99843.44;4995863;28;20054;-75
2022/08/03 06:57:59;;;;;;;5.70;4.97;;;;;;;24.56;100.00;99851.22;4991552;28;20041;-73
2022/08/03 07:00:25;;;;;;;7.20;4.82;;;;;;;24.65;100.00;99852.56;4988807;28;20030;-74
2022/08/03 07:02:51;;;;;;;7.15;5.47;;;;;;;24.71;100.00;99854.34;4992136;28;20030;-73
2022/08/03 07:05:17;;;;;;;7.03;5.80;;;;;;;24.74;99.92;99853.88;4992190;28;20416;-73
2022/08/03 07:07:45;;;;;;;7.28;5.03;;;;;;;24.84;99.93;99854.19;5003349;28;20113;-73
2022/08/03 07:10:11;;;;;;;6.28;5.53;;;;;;;24.95;99.43;99859.88;5001318;28;20053;-73
2022/08/03 07:12:38;;;;;;;6.90;4.97;;;;;;;25.03;98.80;99860.41;4653199;28;10000056;-74
2022/08/03 07:15:04;;;;;;;6.18;4.85;;;;;;;25.12;98.08;99860.88;4990820;28;20030;-75
2022/08/03 07:17:33;;;;;;;5.30;4.55;;;;;;;25.22;97.37;99861.13;4992441;28;20390;-74
2022/08/03 07:20:01;;;;;;;6.15;4.63;;;;;;;25.27;96.60;99866.69;4991014;28;20501;-74
2022/08/03 07:22:27;;;;;;;5.45;4.97;;;;;;;25.30;95.40;99863.53;4299517;28;10000685;-73
2022/08/03 07:24:53;;;;;;;7.70;5.10;;;;;;;25.39;95.14;99867.53;4995933;28;20058;-73
2022/08/03 07:27:19;;;;;;;5.80;5.20;;;;;;;25.38;94.25;99859.69;4995386;28;20078;-75
2022/08/03 07:29:44;;;;;;;13.45;4.93;;;;;;;25.46;94.61;99868.25;5003923;28;20069;-74
2022/08/03 07:32:10;;;;;;;8.88;5.00;;;;;;;25.55;93.82;99866.88;5001100;28;20038;-74
2022/08/03 07:34:36;;;;;;;9.45;5.13;;;;;;;25.65;93.30;99863.63;5000004;28;20029;-75
2022/08/03 07:37:02;;;;;;;5.57;4.50;;;;;;;25.76;92.59;99868.22;4995870;28;20057;-75
2022/08/03 07:39:27;;;;;;;4.45;3.88;;;;;;;25.90;92.74;99868.81;5002627;28;20038;-74
2022/08/03 07:41:53;;;;;;;8.68;4.05;;;;;;;26.01;89.95;99871.53;4997794;28;20038;-77
2022/08/03 07:44:19;;;;;;;4.70;3.17;;;;;;;26.05;86.43;99866.47;4996205;28;20035;-75
2022/08/03 07:46:46;;;;;;;8.95;4.13;;;;;;;26.10;87.62;99874.69;4997750;28;20386;-76
2022/08/03 07:49:12;;;;;;;8.63;4.28;;;;;;;26.07;89.58;99870.59;4994923;28;20533;-73
2022/08/03 07:51:39;;;;;;;6.50;3.92;;;;;;;26.17;89.14;99869.97;4997300;28;20023;-74
2022/08/03 07:54:04;;;;;;;5.03;3.72;;;;;;;26.25;89.16;99861.53;4991889;28;20411;-74
2022/08/03 07:56:30;;;;;;;6.75;3.85;;;;;;;26.33;89.12;99869.28;4996145;28;20066;-75
2022/08/03 07:58:56;;;;;;;5.78;4.30;;;;;;;26.40;88.60;99869.97;4995794;28;20113;-73
2022/08/03 08:01:22;;;;;;;6.70;4.25;;;;;;;26.49;88.16;99870.44;4999157;28;20026;-74
2022/08/03 08:03:49;;;;;;;4.60;3.90;;;;;;;26.54;88.13;99861.59;5002404;28;20030;-76
2022/08/03 08:06:16;;;;;;;4.75;4.00;;;;;;;26.62;88.13;99874.78;5001576;28;20034;-75
2022/08/03 08:08:42;;;;;;;6.90;4.18;;;;;;;26.66;87.59;99856.97;5003168;28;20038;-78
2022/08/03 08:11:07;;;;;;;5.10;4.00;;;;;;;26.68;86.51;99855.69;4998873;28;20089;-77
2022/08/03 08:13:34;;;;;;;5.25;3.70;;;;;;;26.73;85.91;99863.91;5004653;28;20097;-76
2022/08/03 08:16:00;;;;;;;6.18;3.35;;;;;;;26.82;82.36;99861.63;5002421;28;20478;-76
2022/08/03 08:18:28;;;;;;;4.43;2.92;;;;;;;26.90;80.31;99869.41;5006509;28;20398;-75
2022/08/03 08:20:54;;;;;;;4.38;2.30;;;;;;;27.00;78.78;99863.34;5000974;28;20439;-77
2022/08/03 08:23:23;;;;;;;3.58;2.58;;;;;;;27.10;78.23;99861.66;5004500;28;20034;-75
2022/08/03 08:25:50;;;;;;;5.68;3.53;;;;;;;27.17;77.85;99864.22;5000872;28;20406;-75
2022/08/03 08:28:20;;;;;;;3.17;2.85;;;;;;;27.26;77.45;99857.34;5002331;28;20471;-77
2022/08/03 08:30:46;;;;;;;3.22;2.75;;;;;;;27.36;76.30;99857.53;5000776;28;20030;-76
2022/08/03 08:33:12;;;;;;;3.97;2.50;;;;;;;27.48;75.94;99861.00;4999954;28;20117;-76
2022/08/03 08:35:40;;;;;;;6.45;2.70;;;;;;;27.60;75.82;99869.06;5000752;28;20049;-75
2022/08/03 08:38:06;;;;;;;3.60;2.25;;;;;;;27.67;75.37;99862.44;5000159;28;20061;-76
2022/08/03 08:40:32;;;;;;;3.60;2.80;;;;;;;27.72;72.90;99861.69;5004210;28;20138;-77
2022/08/03 08:42:58;;;;;;;3.38;2.20;;;;;;;27.79;72.62;99866.94;5001920;28;20022;-77
2022/08/03 08:45:25;;;;;;;3.97;2.40;;;;;;;27.84;71.72;99857.00;5004940;28;20034;-75
2022/08/03 08:47:51;;;;;;;3.87;2.33;;;;;;;27.89;71.00;99865.19;5000638;28;20044;-77
2022/08/03 08:50:19;;;;;;;2.10;2.00;;;;;;;27.84;70.80;99864.31;5005735;28;20041;-77
2022/08/03 08:52:47;;;;;;;5.13;2.20;;;;;;;27.86;70.61;99857.56;4998751;28;20076;-75
2022/08/03 08:55:21;;;;;;;7.20;2.92;;;;;;;27.92;70.73;99864.69;4999627;28;20441;-75
2022/08/03 08:57:49;;;;;;;5.18;2.40;;;;;;;27.92;69.47;99861.19;5002599;28;20096;-76
2022/08/03 09:00:15;;;;;;;4.88;2.55;;;;;;;27.95;70.39;99864.22;5003107;28;20026;-77
2022/08/03 09:02:42;;;;;;;5.70;2.35;;;;;;;28.03;70.12;99862.97;5002220;28;20502;-78
2022/08/03 09:05:17;;;;;;;2.72;2.42;;;;;;;28.13;70.42;99862.28;4998849;28;20049;-76
2022/08/03 09:07:46;;;;;;;2.45;2.25;;;;;;;28.25;70.26;99873.88;5000827;28;20395;-74
2022/08/03 09:10:16;;;;;;;5.22;1.95;;;;;;;28.38;68.97;99865.38;5000082;28;20034;-75
2022/08/03 09:12:46;;;;;;;5.18;1.58;;;;;;;28.43;65.37;99868.16;5002358;28;20031;-74
2022/08/03 09:15:30;;;;;;;2.47;1.80;;;;;;;28.47;64.95;99863.88;5001252;28;20042;-75
2022/08/03 09:17:59;;;;;;;3.38;2.17;;;;;;;28.52;65.07;99863.94;4995471;28;20087;-75
2022/08/03 09:20:27;;;;;;;3.20;1.70;;;;;;;28.60;65.32;99860.78;4998824;28;20043;-78
2022/08/03 09:23:08;;;;;;;4.40;1.90;;;;;;;28.66;63.64;99861.66;4986148;28;20027;-75
2022/08/03 09:25:40;;;;;;;3.70;1.80;;;;;;;28.74;63.38;99863.97;4979195;28;20063;-76
2022/08/03 09:28:13;;;;;;;4.65;2.10;;;;;;;28.75;62.90;99866.41;4983644;28;20026;-76
2022/08/03 09:30:57;;;;;;;5.82;2.13;;;;;;;28.77;62.53;99869.72;4984990;28;20035;-76
2022/08/03 09:33:23;;;;;;;3.75;2.00;;;;;;;28.81;62.82;99865.41;4984612;28;20084;-75
2022/08/03 09:35:49;;;;;;;2.45;1.80;;;;;;;28.83;62.87;99857.81;4980429;28;20046;-75
2022/08/03 09:38:16;;;;;;;3.85;1.60;;;;;;;28.84;62.69;99859.47;4984335;28;20080;-79
2022/08/03 09:40:44;;;;;;;1.80;1.25;;;;;;;28.92;60.51;99854.66;4984941;28;20084;-76
2022/08/03 09:43:11;;;;;;;2.78;1.38;;;;;;;29.02;58.66;99857.50;4981326;28;20453;-76
2022/08/03 09:45:38;;;;;;;3.90;1.70;;;;;;;29.09;57.77;99858.09;4983917;28;20034;-77
2022/08/03 09:48:20;;;;;;;1.70;1.60;;;;;;;29.15;57.43;99859.81;4984284;28;20041;-77
2022/08/03 09:50:53;;;;;;;2.25;1.60;;;;;;;29.17;56.64;99852.19;4984642;28;20047;-77
2022/08/03 09:53:20;;;;;;;3.28;1.50;;;;;;;29.20;57.43;99852.50;4985836;28;20022;-75
2022/08/03 09:56:12;;;;;;;2.13;1.40;;;;;;;29.24;55.62;99850.09;4986536;28;20045;-77
2022/08/03 09:58:46;;;;;;;1.58;1.48;;;;;;;29.29;56.38;99852.84;4981256;28;20069;-78
2022/08/03 10:01:12;;;;;;;1.85;1.55;;;;;;;29.29;57.44;99850.13;4985776;28;20414;-76
2022/08/03 10:03:39;;;;;;;4.28;1.40;;;;;;;29.33;57.69;99851.31;4983316;28;20026;-75
2022/08/03 10:06:18;;;;;;;2.08;1.98;;;;;;;29.41;57.07;99837.22;4983344;28;20073;-77
2022/08/03 10:09:03;;;;;;;1.60;1.50;;;;;;;29.45;57.50;99845.72;4979821;28;20439;-75
2022/08/03 10:11:30;;;;;;;2.47;1.60;;;;;;;29.46;57.04;99845.44;4961388;28;20097;-76
2022/08/03 10:13:55;;;;;;;3.08;1.55;;;;;;;29.49;57.40;99839.47;4978994;28;20398;-75
2022/08/03 10:16:21;;;;;;;1.23;1.23;;;;;;;29.56;55.82;99842.81;4985917;28;20034;-74
2022/08/03 10:18:47;;;;;;;1.48;1.38;;;;;;;29.61;52.08;99839.31;4984653;28;20558;-77
2022/08/03 10:21:18;;;;;;;2.33;1.30;;;;;;;29.63;52.30;99837.16;4982690;28;20054;-76
2022/08/03 10:23:45;;;;;;;2.45;1.30;;;;;;;29.68;52.50;99834.47;4981539;28;20031;-76
2022/08/03 10:26:17;;;;;;;2.47;1.25;;;;;;;29.69;53.52;99830.66;4961887;28;20035;-74
2022/08/03 10:28:48;;;;;;;1.27;1.17;;;;;;;29.74;53.25;99832.59;4984772;28;20035;-75
2022/08/03 10:31:17;;;;;;;1.98;1.20;;;;;;;29.68;52.34;99827.13;4981931;28;20125;-77
2022/08/03 10:33:48;;;;;;;1.98;1.25;;;;;;;29.74;52.67;99829.88;4982133;28;20031;-76
2022/08/03 10:36:15;;;;;;;3.63;1.55;;;;;;;29.80;52.93;99826.13;4979870;28;20373;-77
2022/08/03 10:38:51;;;;;;;1.38;1.27;;;;;;;29.86;53.20;99827.78;4983297;28;20062;-76
2022/08/03 10:41:22;;;;;;;1.38;1.05;;;;;;;29.89;51.29;99817.19;4981868;28;20414;-76
2022/08/03 10:44:16;;;;;;;2.33;1.27;;;;;;;29.85;50.63;99815.28;4983283;28;20795;-75
2022/08/03 10:46:44;;;;;;;1.25;1.15;;;;;;;29.86;50.83;99811.47;4982695;28;20047;-75
2022/08/03 10:49:16;;;;;;;1.45;1.08;;;;;;;29.94;48.66;99814.53;4988635;28;20030;-75
2022/08/03 10:51:44;;;;;;;1.50;1.20;;;;;;;30.01;48.98;99819.75;4988085;28;20438;-76
2022/08/03 10:57:42;;;;;;;2.70;1.10;;;;;;;30.15;49.83;99811.94;4989178;28;20513;-76
2022/08/03 11:00:09;;;;;;;2.42;1.10;;;;;;;30.16;47.51;99810.84;4986294;28;20390;-77
2022/08/03 11:03:15;;;;;;;1.38;0.90;;;;;;;30.18;47.86;99804.06;4987116;28;20441;-75
2022/08/03 11:05:45;;;;;;;1.88;1.30;;;;;;;30.14;48.80;99807.56;4962349;28;20446;-76
2022/08/03 11:08:33;;;;;;;1.08;1.08;;;;;;;30.16;48.62;99799.97;4989451;28;20026;-76
2022/08/03 11:11:19;;;;;;;2.10;1.10;;;;;;;30.22;47.47;99794.25;4982044;28;20032;-77
2022/08/03 11:14:08;;;;;;;3.13;1.20;;;;;;;30.29;47.68;99788.56;4974694;28;20077;-76
2022/08/03 11:16:36;;;;;;;1.77;1.00;;;;;;;30.33;48.19;99785.06;4987929;28;20495;-77
2022/08/03 11:19:04;;;;;;;3.42;1.08;;;;;;;30.46;47.62;99783.72;4968515;28;20030;-76
2022/08/03 11:21:48;;;;;;;1.40;1.10;;;;;;;30.49;48.28;99783.25;4980915;28;20451;-76
2022/08/03 11:24:35;;;;;;;1.50;1.00;;;;;;;30.50;45.10;99788.44;4985877;28;20382;-76
2022/08/03 11:27:13;;;;;;;1.00;1.00;;;;;;;30.51;47.72;99781.88;4987233;28;20414;-77
2022/08/03 11:30:01;;;;;;;2.80;1.00;;;;;;;30.57;45.85;99781.91;4986619;28;20034;-77
2022/08/03 11:32:56;;;;;;;2.15;0.90;;;;;;;30.61;46.12;99774.84;4979085;28;20066;-76
2022/08/03 11:35:23;;;;;;;2.17;1.00;;;;;;;30.62;45.79;99781.94;4982517;28;20043;-78
2022/08/03 11:37:58;;;;;;;2.30;1.10;;;;;;;30.67;44.95;99776.50;4986302;28;20446;-76
2022/08/03 11:40:39;;;;;;;4.13;1.40;;;;;;;30.69;45.31;99771.59;4985753;28;20046;-77
2022/08/03 11:43:33;;;;;;;2.63;1.05;;;;;;;30.68;45.13;99767.25;4981254;28;20038;-78
2022/08/03 11:46:06;;;;;;;1.70;1.00;;;;;;;30.62;44.66;99765.59;4974312;28;20038;-78
2022/08/03 11:48:36;;;;;;;1.90;1.05;;;;;;;30.67;44.99;99768.31;4987402;28;20371;-77